sensor_id;sensor_type;location;lat;lon;timestamp;temperature;humidity
30244;DHT22;64022;53.652;9.792;2023-06-05T00:00:21;24.00;32.60
30244;DHT22;64022;53.652;9.792;2023-06-05T00:02:47;24.00;32.60
30244;DHT22;64022;53.652;9.792;2023-06-05T00:05:13;24.00;32.60
30244;DHT22;64022;53.652;9.792;2023-06-05T00:07:38;24.00;32.60
30244;DHT22;64022;53.652;9.792;2023-06-05T00:10:07;24.00;33.20
30244;DHT22;64022;53.652;9.792;2023-06-05T00:12:33;24.00;32.70
30244;DHT22;64022;53.652;9.792;2023-06-05T00:14:58;24.00;32.70
30244;DHT22;64022;53.652;9.792;2023-06-05T00:17:24;24.00;32.70
30244;DHT22;64022;53.652;9.792;2023-06-05T00:19:50;24.00;32.70
30244;DHT22;64022;53.652;9.792;2023-06-05T00:22:15;24.00;32.70
30244;DHT22;64022;53.652;9.792;2023-06-05T00:24:40;24.10;32.80
30244;DHT22;64022;53.652;9.792;2023-06-05T00:27:06;24.00;32.70
30244;DHT22;64022;53.652;9.792;2023-06-05T00:29:31;24.10;32.80
30244;DHT22;64022;53.652;9.792;2023-06-05T00:31:57;24.10;32.80
30244;DHT22;64022;53.652;9.792;2023-06-05T00:34:22;24.10;32.90
30244;DHT22;64022;53.652;9.792;2023-06-05T00:36:48;24.10;32.90
30244;DHT22;64022;53.652;9.792;2023-06-05T00:39:16;24.10;32.90
30244;DHT22;64022;53.652;9.792;2023-06-05T00:41:44;24.10;32.90
30244;DHT22;64022;53.652;9.792;2023-06-05T00:44:10;24.10;32.90
30244;DHT22;64022;53.652;9.792;2023-06-05T00:46:36;24.10;33.00
30244;DHT22;64022;53.652;9.792;2023-06-05T00:49:02;24.10;33.00
30244;DHT22;64022;53.652;9.792;2023-06-05T00:51:27;24.10;33.00
30244;DHT22;64022;53.652;9.792;2023-06-05T00:53:53;24.10;33.00
30244;DHT22;64022;53.652;9.792;2023-06-05T00:56:18;24.10;33.00
30244;DHT22;64022;53.652;9.792;2023-06-05T00:58:46;24.10;33.00
30244;DHT22;64022;53.652;9.792;2023-06-05T01:01:12;24.10;33.00
30244;DHT22;64022;53.652;9.792;2023-06-05T01:03:37;24.10;33.00
30244;DHT22;64022;53.652;9.792;2023-06-05T01:06:04;24.10;33.10
30244;DHT22;64022;53.652;9.792;2023-06-05T01:08:31;24.10;33.10
30244;DHT22;64022;53.652;9.792;2023-06-05T01:11:04;24.20;33.10
30244;DHT22;64022;53.652;9.792;2023-06-05T01:13:31;24.20;33.70
30244;DHT22;64022;53.652;9.792;2023-06-05T01:15:57;24.20;33.20
30244;DHT22;64022;53.652;9.792;2023-06-05T01:18:23;24.10;33.10
30244;DHT22;64022;53.652;9.792;2023-06-05T01:20:50;24.20;33.20
30244;DHT22;64022;53.652;9.792;2023-06-05T01:23:15;24.20;33.20
30244;DHT22;64022;53.652;9.792;2023-06-05T01:25:41;24.10;33.20
30244;DHT22;64022;53.652;9.792;2023-06-05T01:28:12;24.20;33.20
30244;DHT22;64022;53.652;9.792;2023-06-05T01:33:37;24.20;33.40
30244;DHT22;64022;53.652;9.792;2023-06-05T01:36:11;24.20;33.30
30244;DHT22;64022;53.652;9.792;2023-06-05T01:38:39;24.20;33.30
30244;DHT22;64022;53.652;9.792;2023-06-05T01:41:05;24.10;33.30
30244;DHT22;64022;53.652;9.792;2023-06-05T01:43:31;24.20;33.40
30244;DHT22;64022;53.652;9.792;2023-06-05T01:45:57;24.20;33.40
30244;DHT22;64022;53.652;9.792;2023-06-05T01:48:24;24.20;33.40
30244;DHT22;64022;53.652;9.792;2023-06-05T01:51:02;24.20;33.40
30244;DHT22;64022;53.652;9.792;2023-06-05T01:53:28;24.20;33.40
30244;DHT22;64022;53.652;9.792;2023-06-05T01:55:54;24.20;33.40
30244;DHT22;64022;53.652;9.792;2023-06-05T01:58:25;24.20;33.40
30244;DHT22;64022;53.652;9.792;2023-06-05T02:00:54;24.20;33.50
30244;DHT22;64022;53.652;9.792;2023-06-05T02:03:22;24.20;33.50
30244;DHT22;64022;53.652;9.792;2023-06-05T02:05:48;24.20;33.50
30244;DHT22;64022;53.652;9.792;2023-06-05T02:08:14;24.20;33.50
30244;DHT22;64022;53.652;9.792;2023-06-05T02:10:45;24.20;33.50
30244;DHT22;64022;53.652;9.792;2023-06-05T02:13:10;24.20;34.10
30244;DHT22;64022;53.652;9.792;2023-06-05T02:15:36;24.20;33.50
30244;DHT22;64022;53.652;9.792;2023-06-05T02:18:02;24.20;33.60
30244;DHT22;64022;53.652;9.792;2023-06-05T02:20:30;24.20;33.60
30244;DHT22;64022;53.652;9.792;2023-06-05T02:22:56;24.20;33.60
30244;DHT22;64022;53.652;9.792;2023-06-05T02:25:22;24.20;33.60
30244;DHT22;64022;53.652;9.792;2023-06-05T02:27:51;24.20;33.60
30244;DHT22;64022;53.652;9.792;2023-06-05T02:30:16;24.20;33.60
30244;DHT22;64022;53.652;9.792;2023-06-05T02:32:42;24.20;33.70
30244;DHT22;64022;53.652;9.792;2023-06-05T02:35:09;24.20;33.70
30244;DHT22;64022;53.652;9.792;2023-06-05T02:37:35;24.20;33.70
30244;DHT22;64022;53.652;9.792;2023-06-05T02:40:03;24.20;33.70
30244;DHT22;64022;53.652;9.792;2023-06-05T02:42:28;24.20;33.70
30244;DHT22;64022;53.652;9.792;2023-06-05T02:44:54;24.20;33.70
30244;DHT22;64022;53.652;9.792;2023-06-05T02:47:20;24.20;33.70
30244;DHT22;64022;53.652;9.792;2023-06-05T02:49:45;24.20;33.70
30244;DHT22;64022;53.652;9.792;2023-06-05T02:52:10;24.20;33.80
30244;DHT22;64022;53.652;9.792;2023-06-05T02:54:37;24.20;33.80
30244;DHT22;64022;53.652;9.792;2023-06-05T02:57:03;24.20;33.80
30244;DHT22;64022;53.652;9.792;2023-06-05T02:59:32;24.20;33.80
30244;DHT22;64022;53.652;9.792;2023-06-05T03:01:57;24.20;33.80
30244;DHT22;64022;53.652;9.792;2023-06-05T03:04:22;24.20;33.80
30244;DHT22;64022;53.652;9.792;2023-06-05T03:06:49;24.20;33.80
30244;DHT22;64022;53.652;9.792;2023-06-05T03:09:15;24.20;33.80
30244;DHT22;64022;53.652;9.792;2023-06-05T03:11:41;24.20;33.80
30244;DHT22;64022;53.652;9.792;2023-06-05T03:14:07;24.20;33.90
30244;DHT22;64022;53.652;9.792;2023-06-05T03:16:32;24.30;33.90
30244;DHT22;64022;53.652;9.792;2023-06-05T03:19:03;24.30;33.90
30244;DHT22;64022;53.652;9.792;2023-06-05T03:21:28;24.30;34.00
30244;DHT22;64022;53.652;9.792;2023-06-05T03:23:53;24.20;33.90
30244;DHT22;64022;53.652;9.792;2023-06-05T03:26:19;24.30;34.00
30244;DHT22;64022;53.652;9.792;2023-06-05T03:28:44;24.30;34.00
30244;DHT22;64022;53.652;9.792;2023-06-05T03:31:10;24.30;34.00
30244;DHT22;64022;53.652;9.792;2023-06-05T03:33:35;24.30;34.00
30244;DHT22;64022;53.652;9.792;2023-06-05T03:36:01;24.30;34.00
30244;DHT22;64022;53.652;9.792;2023-06-05T03:38:27;24.30;34.10
30244;DHT22;64022;53.652;9.792;2023-06-05T03:40:52;24.30;34.10
30244;DHT22;64022;53.652;9.792;2023-06-05T03:43:18;24.30;34.10
30244;DHT22;64022;53.652;9.792;2023-06-05T03:45:43;24.30;34.10
30244;DHT22;64022;53.652;9.792;2023-06-05T03:48:09;24.30;34.10
30244;DHT22;64022;53.652;9.792;2023-06-05T03:50:34;24.30;34.20
30244;DHT22;64022;53.652;9.792;2023-06-05T03:53:03;24.30;34.20
30244;DHT22;64022;53.652;9.792;2023-06-05T03:55:33;24.30;34.20
30244;DHT22;64022;53.652;9.792;2023-06-05T03:58:13;24.30;34.20
30244;DHT22;64022;53.652;9.792;2023-06-05T04:00:40;24.30;34.20
30244;DHT22;64022;53.652;9.792;2023-06-05T04:03:06;24.30;34.20
30244;DHT22;64022;53.652;9.792;2023-06-05T04:05:34;24.40;34.30
30244;DHT22;64022;53.652;9.792;2023-06-05T04:07:59;24.40;34.30
30244;DHT22;64022;53.652;9.792;2023-06-05T04:10:25;24.40;34.40
30244;DHT22;64022;53.652;9.792;2023-06-05T04:12:50;24.30;34.30
30244;DHT22;64022;53.652;9.792;2023-06-05T04:15:16;24.40;34.40
30244;DHT22;64022;53.652;9.792;2023-06-05T04:17:41;24.40;34.40
30244;DHT22;64022;53.652;9.792;2023-06-05T04:20:07;24.40;34.40
30244;DHT22;64022;53.652;9.792;2023-06-05T04:22:35;24.40;34.50
30244;DHT22;64022;53.652;9.792;2023-06-05T04:25:01;24.40;34.50
30244;DHT22;64022;53.652;9.792;2023-06-05T04:27:27;24.40;34.50
30244;DHT22;64022;53.652;9.792;2023-06-05T04:29:53;24.40;34.50
30244;DHT22;64022;53.652;9.792;2023-06-05T04:32:19;24.40;34.50
30244;DHT22;64022;53.652;9.792;2023-06-05T04:34:44;24.40;34.50
30244;DHT22;64022;53.652;9.792;2023-06-05T04:37:10;24.50;34.60
30244;DHT22;64022;53.652;9.792;2023-06-05T04:39:35;24.50;34.60
30244;DHT22;64022;53.652;9.792;2023-06-05T04:42:01;24.50;34.60
30244;DHT22;64022;53.652;9.792;2023-06-05T04:44:27;24.50;34.60
30244;DHT22;64022;53.652;9.792;2023-06-05T04:46:53;24.50;34.60
30244;DHT22;64022;53.652;9.792;2023-06-05T04:49:18;24.50;34.60
30244;DHT22;64022;53.652;9.792;2023-06-05T04:51:44;24.50;34.60
30244;DHT22;64022;53.652;9.792;2023-06-05T04:54:09;24.50;34.60
30244;DHT22;64022;53.652;9.792;2023-06-05T04:56:35;24.50;34.70
30244;DHT22;64022;53.652;9.792;2023-06-05T04:59:02;24.50;34.70
30244;DHT22;64022;53.652;9.792;2023-06-05T05:01:28;24.50;34.70
30244;DHT22;64022;53.652;9.792;2023-06-05T05:03:54;24.60;34.70
30244;DHT22;64022;53.652;9.792;2023-06-05T05:06:20;24.60;34.80
30244;DHT22;64022;53.652;9.792;2023-06-05T05:08:46;24.60;34.80
30244;DHT22;64022;53.652;9.792;2023-06-05T05:11:15;24.60;34.80
30244;DHT22;64022;53.652;9.792;2023-06-05T05:13:41;24.60;34.80
30244;DHT22;64022;53.652;9.792;2023-06-05T05:16:07;24.60;34.80
30244;DHT22;64022;53.652;9.792;2023-06-05T05:18:39;24.60;34.80
30244;DHT22;64022;53.652;9.792;2023-06-05T05:21:05;24.60;34.80
30244;DHT22;64022;53.652;9.792;2023-06-05T05:23:34;24.60;34.80
30244;DHT22;64022;53.652;9.792;2023-06-05T05:26:00;24.60;34.80
30244;DHT22;64022;53.652;9.792;2023-06-05T05:28:25;24.60;34.80
30244;DHT22;64022;53.652;9.792;2023-06-05T05:30:51;24.60;34.80
30244;DHT22;64022;53.652;9.792;2023-06-05T05:33:16;24.60;34.80
30244;DHT22;64022;53.652;9.792;2023-06-05T05:35:43;24.70;34.90
30244;DHT22;64022;53.652;9.792;2023-06-05T05:38:09;24.60;34.80
30244;DHT22;64022;53.652;9.792;2023-06-05T05:40:34;24.60;34.80
30244;DHT22;64022;53.652;9.792;2023-06-05T05:43:00;24.60;34.90
30244;DHT22;64022;53.652;9.792;2023-06-05T05:45:25;24.60;34.90
30244;DHT22;64022;53.652;9.792;2023-06-05T05:47:51;24.60;34.90
30244;DHT22;64022;53.652;9.792;2023-06-05T05:50:16;24.60;34.90
30244;DHT22;64022;53.652;9.792;2023-06-05T05:52:42;24.60;34.90
30244;DHT22;64022;53.652;9.792;2023-06-05T05:55:08;24.70;35.00
30244;DHT22;64022;53.652;9.792;2023-06-05T05:57:34;24.60;34.90
30244;DHT22;64022;53.652;9.792;2023-06-05T05:59:59;24.70;35.00
30244;DHT22;64022;53.652;9.792;2023-06-05T06:02:25;24.70;35.00
30244;DHT22;64022;53.652;9.792;2023-06-05T06:04:51;24.60;35.00
30244;DHT22;64022;53.652;9.792;2023-06-05T06:07:16;24.70;35.10
30244;DHT22;64022;53.652;9.792;2023-06-05T06:09:42;24.70;35.10
30244;DHT22;64022;53.652;9.792;2023-06-05T06:12:07;24.70;35.10
30244;DHT22;64022;53.652;9.792;2023-06-05T06:14:34;24.70;35.10
30244;DHT22;64022;53.652;9.792;2023-06-05T06:17:00;24.70;34.60
30244;DHT22;64022;53.652;9.792;2023-06-05T06:19:25;24.60;33.80
30244;DHT22;64022;53.652;9.792;2023-06-05T06:21:53;24.40;33.30
30244;DHT22;64022;53.652;9.792;2023-06-05T06:24:18;24.20;33.00
30244;DHT22;64022;53.652;9.792;2023-06-05T06:26:47;24.10;33.10
30244;DHT22;64022;53.652;9.792;2023-06-05T06:29:19;24.00;33.20
30244;DHT22;64022;53.652;9.792;2023-06-05T06:31:49;23.90;33.40
30244;DHT22;64022;53.652;9.792;2023-06-05T06:34:15;23.90;33.40
30244;DHT22;64022;53.652;9.792;2023-06-05T06:36:41;23.80;33.30
30244;DHT22;64022;53.652;9.792;2023-06-05T06:39:11;23.70;33.20
30244;DHT22;64022;53.652;9.792;2023-06-05T06:41:38;23.60;33.10
30244;DHT22;64022;53.652;9.792;2023-06-05T06:44:03;23.50;33.40
30244;DHT22;64022;53.652;9.792;2023-06-05T06:46:29;23.50;33.60
30244;DHT22;64022;53.652;9.792;2023-06-05T06:48:55;23.50;33.80
30244;DHT22;64022;53.652;9.792;2023-06-05T06:51:20;23.40;34.00
30244;DHT22;64022;53.652;9.792;2023-06-05T06:53:49;23.40;34.10
30244;DHT22;64022;53.652;9.792;2023-06-05T06:56:16;23.40;34.70
30244;DHT22;64022;53.652;9.792;2023-06-05T06:58:44;23.30;34.40
30244;DHT22;64022;53.652;9.792;2023-06-05T07:01:14;23.40;34.70
30244;DHT22;64022;53.652;9.792;2023-06-05T07:03:40;23.40;34.90
30244;DHT22;64022;53.652;9.792;2023-06-05T07:06:07;23.40;34.90
30244;DHT22;64022;53.652;9.792;2023-06-05T07:08:34;23.40;35.00
30244;DHT22;64022;53.652;9.792;2023-06-05T07:11:00;23.40;35.10
30244;DHT22;64022;53.652;9.792;2023-06-05T07:13:26;23.40;35.10
30244;DHT22;64022;53.652;9.792;2023-06-05T07:15:51;23.30;34.70
30244;DHT22;64022;53.652;9.792;2023-06-05T07:18:17;23.20;34.60
30244;DHT22;64022;53.652;9.792;2023-06-05T07:20:42;23.20;34.90
30244;DHT22;64022;53.652;9.792;2023-06-05T07:23:08;23.10;35.10
30244;DHT22;64022;53.652;9.792;2023-06-05T07:25:33;23.10;35.00
30244;DHT22;64022;53.652;9.792;2023-06-05T07:27:59;23.00;35.30
30244;DHT22;64022;53.652;9.792;2023-06-05T07:30:28;23.00;35.80
30244;DHT22;64022;53.652;9.792;2023-06-05T07:32:55;23.00;36.30
30244;DHT22;64022;53.652;9.792;2023-06-05T07:35:21;23.00;36.60
30244;DHT22;64022;53.652;9.792;2023-06-05T07:37:48;23.10;36.80
30244;DHT22;64022;53.652;9.792;2023-06-05T07:40:14;23.20;37.00
30244;DHT22;64022;53.652;9.792;2023-06-05T07:42:39;23.20;37.10
30244;DHT22;64022;53.652;9.792;2023-06-05T07:45:05;23.30;37.20
30244;DHT22;64022;53.652;9.792;2023-06-05T07:47:31;23.30;37.30
30244;DHT22;64022;53.652;9.792;2023-06-05T07:50:00;23.40;37.40
30244;DHT22;64022;53.652;9.792;2023-06-05T07:52:26;23.40;37.40
30244;DHT22;64022;53.652;9.792;2023-06-05T07:54:51;23.50;37.50
30244;DHT22;64022;53.652;9.792;2023-06-05T07:57:17;23.50;37.50
30244;DHT22;64022;53.652;9.792;2023-06-05T07:59:43;23.60;37.60
30244;DHT22;64022;53.652;9.792;2023-06-05T08:02:08;23.60;37.60
30244;DHT22;64022;53.652;9.792;2023-06-05T08:04:34;23.60;37.60
30244;DHT22;64022;53.652;9.792;2023-06-05T08:07:00;23.60;37.60
30244;DHT22;64022;53.652;9.792;2023-06-05T08:09:26;23.70;37.70
30244;DHT22;64022;53.652;9.792;2023-06-05T08:11:51;23.70;37.70
30244;DHT22;64022;53.652;9.792;2023-06-05T08:14:17;23.80;37.80
30244;DHT22;64022;53.652;9.792;2023-06-05T08:16:42;23.80;38.40
30244;DHT22;64022;53.652;9.792;2023-06-05T08:19:08;23.80;37.80
30244;DHT22;64022;53.652;9.792;2023-06-05T08:21:34;23.90;37.90
30244;DHT22;64022;53.652;9.792;2023-06-05T08:23:59;23.90;37.90
30244;DHT22;64022;53.652;9.792;2023-06-05T08:26:25;23.90;37.90
30244;DHT22;64022;53.652;9.792;2023-06-05T08:28:51;23.90;38.20
30244;DHT22;64022;53.652;9.792;2023-06-05T08:31:16;23.90;37.90
30244;DHT22;64022;53.652;9.792;2023-06-05T08:33:42;24.00;37.90
30244;DHT22;64022;53.652;9.792;2023-06-05T08:36:08;24.00;37.90
30244;DHT22;64022;53.652;9.792;2023-06-05T08:38:34;24.00;37.90
30244;DHT22;64022;53.652;9.792;2023-06-05T08:41:00;24.00;37.90
30244;DHT22;64022;53.652;9.792;2023-06-05T08:43:26;24.00;37.90
30244;DHT22;64022;53.652;9.792;2023-06-05T08:45:52;24.00;37.90
30244;DHT22;64022;53.652;9.792;2023-06-05T08:48:20;24.00;37.90
30244;DHT22;64022;53.652;9.792;2023-06-05T08:50:47;24.00;37.90
30244;DHT22;64022;53.652;9.792;2023-06-05T08:53:12;24.10;38.00
30244;DHT22;64022;53.652;9.792;2023-06-05T08:55:42;24.10;38.00
30244;DHT22;64022;53.652;9.792;2023-06-05T08:58:07;24.10;38.00
30244;DHT22;64022;53.652;9.792;2023-06-05T09:00:33;24.10;38.00
30244;DHT22;64022;53.652;9.792;2023-06-05T09:02:58;24.20;38.00
30244;DHT22;64022;53.652;9.792;2023-06-05T09:05:24;24.20;38.00
30244;DHT22;64022;53.652;9.792;2023-06-05T09:07:50;24.20;38.00
30244;DHT22;64022;53.652;9.792;2023-06-05T09:10:22;24.20;38.00
30244;DHT22;64022;53.652;9.792;2023-06-05T09:12:58;24.20;38.00
30244;DHT22;64022;53.652;9.792;2023-06-05T09:18:02;24.20;38.00
30244;DHT22;64022;53.652;9.792;2023-06-05T09:20:27;24.20;38.00
30244;DHT22;64022;53.652;9.792;2023-06-05T09:22:54;24.20;38.50
30244;DHT22;64022;53.652;9.792;2023-06-05T09:25:20;24.20;38.00
30244;DHT22;64022;53.652;9.792;2023-06-05T09:27:53;24.30;38.00
30244;DHT22;64022;53.652;9.792;2023-06-05T09:30:30;24.30;38.00
30244;DHT22;64022;53.652;9.792;2023-06-05T09:32:55;24.30;38.00
30244;DHT22;64022;53.652;9.792;2023-06-05T09:35:21;24.30;38.00
30244;DHT22;64022;53.652;9.792;2023-06-05T09:37:46;24.30;38.00
30244;DHT22;64022;53.652;9.792;2023-06-05T09:40:12;24.30;38.00
30244;DHT22;64022;53.652;9.792;2023-06-05T09:42:40;24.30;38.00
30244;DHT22;64022;53.652;9.792;2023-06-05T09:45:05;24.30;38.00
30244;DHT22;64022;53.652;9.792;2023-06-05T09:47:31;24.30;38.00
30244;DHT22;64022;53.652;9.792;2023-06-05T09:49:57;24.30;38.00
30244;DHT22;64022;53.652;9.792;2023-06-05T09:52:23;24.30;38.00
30244;DHT22;64022;53.652;9.792;2023-06-05T09:54:48;24.40;38.10
30244;DHT22;64022;53.652;9.792;2023-06-05T09:57:14;24.40;38.10
30244;DHT22;64022;53.652;9.792;2023-06-05T09:59:43;24.40;38.00
30244;DHT22;64022;53.652;9.792;2023-06-05T10:02:10;24.40;38.00
30244;DHT22;64022;53.652;9.792;2023-06-05T10:05:13;24.40;38.10
30244;DHT22;64022;53.652;9.792;2023-06-05T10:07:36;24.40;38.00
30244;DHT22;64022;53.652;9.792;2023-06-05T10:10:02;24.40;38.00
30244;DHT22;64022;53.652;9.792;2023-06-05T10:12:30;24.40;38.10
30244;DHT22;64022;53.652;9.792;2023-06-05T10:14:56;24.50;38.10
30244;DHT22;64022;53.652;9.792;2023-06-05T10:17:22;24.40;38.00
30244;DHT22;64022;53.652;9.792;2023-06-05T10:19:48;24.40;38.00
30244;DHT22;64022;53.652;9.792;2023-06-05T10:22:16;24.50;38.10
30244;DHT22;64022;53.652;9.792;2023-06-05T10:24:49;24.50;38.10
30244;DHT22;64022;53.652;9.792;2023-06-05T10:27:33;24.40;38.00
30244;DHT22;64022;53.652;9.792;2023-06-05T10:32:36;24.50;38.10
30244;DHT22;64022;53.652;9.792;2023-06-05T10:35:08;24.50;38.10
30244;DHT22;64022;53.652;9.792;2023-06-05T10:40:04;24.50;38.10
30244;DHT22;64022;53.652;9.792;2023-06-05T10:42:30;24.50;38.10
30244;DHT22;64022;53.652;9.792;2023-06-05T10:44:56;24.50;38.10
30244;DHT22;64022;53.652;9.792;2023-06-05T10:52:47;24.50;38.10
30244;DHT22;64022;53.652;9.792;2023-06-05T10:55:12;24.50;38.10
30244;DHT22;64022;53.652;9.792;2023-06-05T11:00:26;24.50;38.10
30244;DHT22;64022;53.652;9.792;2023-06-05T11:02:52;24.50;38.10
30244;DHT22;64022;53.652;9.792;2023-06-05T11:05:18;24.50;38.10
30244;DHT22;64022;53.652;9.792;2023-06-05T11:07:44;24.60;38.10
30244;DHT22;64022;53.652;9.792;2023-06-05T11:10:15;24.60;38.10
30244;DHT22;64022;53.652;9.792;2023-06-05T11:17:37;24.60;38.10
30244;DHT22;64022;53.652;9.792;2023-06-05T11:20:03;24.60;38.10
30244;DHT22;64022;53.652;9.792;2023-06-05T11:25:25;24.60;38.10
30244;DHT22;64022;53.652;9.792;2023-06-05T11:28:01;24.60;38.10
30244;DHT22;64022;53.652;9.792;2023-06-05T11:30:32;24.60;38.10
30244;DHT22;64022;53.652;9.792;2023-06-05T11:33:18;24.60;38.10
30244;DHT22;64022;53.652;9.792;2023-06-05T11:35:46;24.60;38.10
30244;DHT22;64022;53.652;9.792;2023-06-05T11:38:15;24.70;38.20
30244;DHT22;64022;53.652;9.792;2023-06-05T11:40:41;24.60;38.10
30244;DHT22;64022;53.652;9.792;2023-06-05T11:43:08;24.70;38.20
30244;DHT22;64022;53.652;9.792;2023-06-05T11:45:34;24.70;38.20
30244;DHT22;64022;53.652;9.792;2023-06-05T11:50:29;24.70;38.20
30244;DHT22;64022;53.652;9.792;2023-06-05T11:53:03;24.70;38.20
30244;DHT22;64022;53.652;9.792;2023-06-05T11:55:28;24.70;38.20
30244;DHT22;64022;53.652;9.792;2023-06-05T11:58:08;24.70;38.20
30244;DHT22;64022;53.652;9.792;2023-06-05T12:00:34;24.70;38.20
30244;DHT22;64022;53.652;9.792;2023-06-05T12:02:59;24.70;38.20
30244;DHT22;64022;53.652;9.792;2023-06-05T12:05:25;24.70;38.20
30244;DHT22;64022;53.652;9.792;2023-06-05T12:07:50;24.70;38.20
30244;DHT22;64022;53.652;9.792;2023-06-05T12:10:16;24.70;38.70
30244;DHT22;64022;53.652;9.792;2023-06-05T12:12:51;24.70;38.20
30244;DHT22;64022;53.652;9.792;2023-06-05T12:15:17;24.70;38.20
30244;DHT22;64022;53.652;9.792;2023-06-05T12:17:52;24.70;38.20
30244;DHT22;64022;53.652;9.792;2023-06-05T12:20:19;24.70;38.20
30244;DHT22;64022;53.652;9.792;2023-06-05T12:22:45;24.70;38.20
30244;DHT22;64022;53.652;9.792;2023-06-05T12:25:17;24.70;38.20
30244;DHT22;64022;53.652;9.792;2023-06-05T12:27:43;24.70;38.20
30244;DHT22;64022;53.652;9.792;2023-06-05T12:30:10;24.70;38.20
30244;DHT22;64022;53.652;9.792;2023-06-05T12:32:36;24.70;38.20
30244;DHT22;64022;53.652;9.792;2023-06-05T12:35:04;24.70;38.20
30244;DHT22;64022;53.652;9.792;2023-06-05T12:37:33;24.80;38.20
30244;DHT22;64022;53.652;9.792;2023-06-05T12:40:11;24.80;38.30
30244;DHT22;64022;53.652;9.792;2023-06-05T12:42:37;24.80;38.30
30244;DHT22;64022;53.652;9.792;2023-06-05T12:45:03;24.80;38.30
30244;DHT22;64022;53.652;9.792;2023-06-05T12:47:28;24.80;38.30
30244;DHT22;64022;53.652;9.792;2023-06-05T12:49:54;24.80;38.30
30244;DHT22;64022;53.652;9.792;2023-06-05T12:52:20;24.80;38.30
30244;DHT22;64022;53.652;9.792;2023-06-05T12:54:51;24.80;38.30
30244;DHT22;64022;53.652;9.792;2023-06-05T12:57:16;24.80;38.30
30244;DHT22;64022;53.652;9.792;2023-06-05T12:59:49;24.80;38.30
30244;DHT22;64022;53.652;9.792;2023-06-05T13:02:15;24.80;38.30
30244;DHT22;64022;53.652;9.792;2023-06-05T13:04:41;24.80;38.30
30244;DHT22;64022;53.652;9.792;2023-06-05T13:07:07;24.80;38.30
30244;DHT22;64022;53.652;9.792;2023-06-05T13:09:33;24.80;38.30
30244;DHT22;64022;53.652;9.792;2023-06-05T13:11:58;24.80;38.30
30244;DHT22;64022;53.652;9.792;2023-06-05T13:14:29;24.80;38.30
30244;DHT22;64022;53.652;9.792;2023-06-05T13:16:54;24.80;38.30
30244;DHT22;64022;53.652;9.792;2023-06-05T13:19:20;24.80;38.30
30244;DHT22;64022;53.652;9.792;2023-06-05T13:21:46;24.90;38.40
30244;DHT22;64022;53.652;9.792;2023-06-05T13:24:11;24.80;38.30
30244;DHT22;64022;53.652;9.792;2023-06-05T13:26:37;24.90;38.40
30244;DHT22;64022;53.652;9.792;2023-06-05T13:29:02;24.90;38.40
30244;DHT22;64022;53.652;9.792;2023-06-05T13:31:28;24.90;38.40
30244;DHT22;64022;53.652;9.792;2023-06-05T13:33:54;24.90;38.40
30244;DHT22;64022;53.652;9.792;2023-06-05T13:36:19;24.90;38.40
30244;DHT22;64022;53.652;9.792;2023-06-05T13:38:45;24.90;38.40
30244;DHT22;64022;53.652;9.792;2023-06-05T13:41:12;24.90;38.40
30244;DHT22;64022;53.652;9.792;2023-06-05T13:43:38;24.90;38.40
30244;DHT22;64022;53.652;9.792;2023-06-05T13:46:03;24.90;38.40
30244;DHT22;64022;53.652;9.792;2023-06-05T13:48:29;24.90;38.40
30244;DHT22;64022;53.652;9.792;2023-06-05T13:50:55;24.90;38.40
30244;DHT22;64022;53.652;9.792;2023-06-05T13:53:21;24.90;38.40
30244;DHT22;64022;53.652;9.792;2023-06-05T13:55:46;24.90;38.40
30244;DHT22;64022;53.652;9.792;2023-06-05T13:58:12;24.90;38.40
30244;DHT22;64022;53.652;9.792;2023-06-05T14:00:37;24.90;38.40
30244;DHT22;64022;53.652;9.792;2023-06-05T14:03:03;24.90;38.50
30244;DHT22;64022;53.652;9.792;2023-06-05T14:05:29;24.90;38.40
30244;DHT22;64022;53.652;9.792;2023-06-05T14:07:55;24.90;38.40
30244;DHT22;64022;53.652;9.792;2023-06-05T14:10:21;24.90;38.50
30244;DHT22;64022;53.652;9.792;2023-06-05T14:12:47;24.90;38.50
30244;DHT22;64022;53.652;9.792;2023-06-05T14:15:13;24.90;38.40
30244;DHT22;64022;53.652;9.792;2023-06-05T14:17:38;25.00;38.30
30244;DHT22;64022;53.652;9.792;2023-06-05T14:20:04;24.90;38.20
30244;DHT22;64022;53.652;9.792;2023-06-05T14:22:29;24.90;38.20
30244;DHT22;64022;53.652;9.792;2023-06-05T14:24:55;24.90;38.10
30244;DHT22;64022;53.652;9.792;2023-06-05T14:27:20;24.90;38.00
30244;DHT22;64022;53.652;9.792;2023-06-05T14:29:46;24.90;37.90
30244;DHT22;64022;53.652;9.792;2023-06-05T14:32:12;24.90;37.80
30244;DHT22;64022;53.652;9.792;2023-06-05T14:34:37;25.00;37.70
30244;DHT22;64022;53.652;9.792;2023-06-05T14:37:03;24.90;37.40
30244;DHT22;64022;53.652;9.792;2023-06-05T14:39:28;24.90;37.20
30244;DHT22;64022;53.652;9.792;2023-06-05T14:41:54;24.90;37.40
30244;DHT22;64022;53.652;9.792;2023-06-05T14:44:19;24.90;36.80
30244;DHT22;64022;53.652;9.792;2023-06-05T14:46:44;24.90;36.70
30244;DHT22;64022;53.652;9.792;2023-06-05T14:49:11;24.90;36.50
30244;DHT22;64022;53.652;9.792;2023-06-05T14:51:38;24.90;36.50
30244;DHT22;64022;53.652;9.792;2023-06-05T14:54:03;24.90;36.40
30244;DHT22;64022;53.652;9.792;2023-06-05T14:56:29;24.90;36.30
30244;DHT22;64022;53.652;9.792;2023-06-05T14:58:54;24.90;36.20
30244;DHT22;64022;53.652;9.792;2023-06-05T15:01:20;24.90;36.20
30244;DHT22;64022;53.652;9.792;2023-06-05T15:03:45;24.90;36.10
30244;DHT22;64022;53.652;9.792;2023-06-05T15:06:11;24.90;36.00
30244;DHT22;64022;53.652;9.792;2023-06-05T15:08:36;24.90;35.90
30244;DHT22;64022;53.652;9.792;2023-06-05T15:11:02;24.90;35.90
30244;DHT22;64022;53.652;9.792;2023-06-05T15:13:27;24.90;35.80
30244;DHT22;64022;53.652;9.792;2023-06-05T15:15:53;24.90;35.70
30244;DHT22;64022;53.652;9.792;2023-06-05T15:18:18;24.90;35.70
30244;DHT22;64022;53.652;9.792;2023-06-05T15:20:44;24.90;35.60
30244;DHT22;64022;53.652;9.792;2023-06-05T15:23:09;25.00;35.60
30244;DHT22;64022;53.652;9.792;2023-06-05T15:25:35;25.00;35.50
30244;DHT22;64022;53.652;9.792;2023-06-05T15:28:01;24.90;35.30
30244;DHT22;64022;53.652;9.792;2023-06-05T15:30:26;25.00;35.30
30244;DHT22;64022;53.652;9.792;2023-06-05T15:32:52;25.00;35.20
30244;DHT22;64022;53.652;9.792;2023-06-05T15:35:17;25.00;35.10
30244;DHT22;64022;53.652;9.792;2023-06-05T15:37:43;24.90;34.90
30244;DHT22;64022;53.652;9.792;2023-06-05T15:40:08;24.90;34.80
30244;DHT22;64022;53.652;9.792;2023-06-05T15:42:35;24.90;34.80
30244;DHT22;64022;53.652;9.792;2023-06-05T15:45:05;24.90;34.80
30244;DHT22;64022;53.652;9.792;2023-06-05T15:47:30;25.00;34.80
30244;DHT22;64022;53.652;9.792;2023-06-05T15:49:56;25.00;34.70
30244;DHT22;64022;53.652;9.792;2023-06-05T15:52:21;25.00;34.50
30244;DHT22;64022;53.652;9.792;2023-06-05T15:54:46;24.90;34.30